createdAt,value
2022-08-01T00:00:51.640Z,2.90
2022-08-01T00:01:51.534Z,3.20
2022-08-01T00:02:51.534Z,2.70
2022-08-01T00:03:51.502Z,2.80
2022-08-01T00:04:51.510Z,2.70
2022-08-01T00:05:51.479Z,2.70
2022-08-01T00:06:51.510Z,2.70
2022-08-01T00:07:51.458Z,3.00
2022-08-01T00:08:51.495Z,3.20
2022-08-01T00:09:51.494Z,3.20
2022-08-01T00:10:51.442Z,3.00
2022-08-01T00:11:59.527Z,2.90
2022-08-01T00:12:52.443Z,2.80
2022-08-01T00:13:51.453Z,2.80
2022-08-01T00:14:51.486Z,2.40
2022-08-01T00:15:54.036Z,2.90
2022-08-01T00:16:51.416Z,2.50
2022-08-01T00:17:51.438Z,2.70
2022-08-01T00:18:51.384Z,2.30
2022-08-01T00:19:51.383Z,2.40
2022-08-01T00:20:51.469Z,2.50
2022-08-01T00:21:52.304Z,2.30
2022-08-01T00:22:51.370Z,2.20
2022-08-01T00:23:51.349Z,1.90
2022-08-01T00:24:51.383Z,1.90
2022-08-01T00:25:51.363Z,1.90
2022-08-01T00:26:51.421Z,1.80
2022-08-01T00:27:51.393Z,1.60
2022-08-01T00:28:51.347Z,1.90
2022-08-01T00:30:11.506Z,1.80
2022-08-01T00:30:52.327Z,1.80
2022-08-01T00:31:51.317Z,2.20
2022-08-01T00:32:51.322Z,1.70
2022-08-01T00:33:51.304Z,1.60
2022-08-01T00:34:51.334Z,1.60
2022-08-01T00:35:51.271Z,1.90
2022-08-01T00:36:51.291Z,1.70
2022-08-01T00:37:51.322Z,2.00
2022-08-01T00:38:51.276Z,2.00
2022-08-01T00:39:51.309Z,1.80
2022-08-01T00:40:51.303Z,1.90
2022-08-01T00:41:51.233Z,1.80
2022-08-01T00:42:52.333Z,2.20
2022-08-01T00:43:51.236Z,2.00
2022-08-01T00:44:51.230Z,1.80
2022-08-01T00:45:51.242Z,2.20
2022-08-01T00:46:51.231Z,2.60
2022-08-01T00:47:55.190Z,2.00
2022-08-01T00:48:51.346Z,2.00
2022-08-01T00:49:52.230Z,1.90
2022-08-01T00:50:51.194Z,2.00
2022-08-01T00:51:51.212Z,2.00
2022-08-01T00:52:51.500Z,1.90
2022-08-01T00:53:52.471Z,1.70
2022-08-01T00:54:51.151Z,1.80
2022-08-01T00:55:51.205Z,2.00
2022-08-01T00:56:51.213Z,2.00
2022-08-01T00:58:02.491Z,2.20
2022-08-01T00:58:52.197Z,2.30
2022-08-01T00:59:51.182Z,2.00
2022-08-01T01:00:52.599Z,2.10
2022-08-01T01:01:51.185Z,2.30
2022-08-01T01:02:51.134Z,1.80
2022-08-01T01:03:59.713Z,1.90
2022-08-01T01:04:53.102Z,1.90
2022-08-01T01:05:51.127Z,2.00
2022-08-01T01:06:51.148Z,2.00
2022-08-01T01:07:51.080Z,2.10
2022-08-01T01:08:51.088Z,2.00
2022-08-01T01:09:51.099Z,1.90
2022-08-01T01:10:51.107Z,1.80
2022-08-01T01:11:51.197Z,1.80
2022-08-01T01:12:51.088Z,1.90
2022-08-01T01:13:51.170Z,2.10
2022-08-01T01:14:51.040Z,1.90
2022-08-01T01:15:51.103Z,2.10
2022-08-01T01:16:51.037Z,2.10
2022-08-01T01:17:52.044Z,2.40
2022-08-01T01:18:52.098Z,2.20
2022-08-01T01:19:51.040Z,2.60
2022-08-01T01:20:51.019Z,2.60
2022-08-01T01:21:51.014Z,2.20
2022-08-01T01:22:51.037Z,2.40
2022-08-01T01:23:51.041Z,2.20
2022-08-01T01:24:51.027Z,2.50
2022-08-01T01:25:50.988Z,2.60
2022-08-01T01:26:51.066Z,2.40
2022-08-01T01:27:50.986Z,2.60
2022-08-01T01:28:51.026Z,2.80
2022-08-01T01:29:59.334Z,3.00
2022-08-01T01:30:51.968Z,2.90
2022-08-01T01:31:51.004Z,2.90
2022-08-01T01:32:50.948Z,3.30
2022-08-01T01:33:50.982Z,3.50
2022-08-01T01:34:50.927Z,3.00
2022-08-01T01:35:50.978Z,3.50
2022-08-01T01:36:50.950Z,2.90
2022-08-01T01:37:51.052Z,3.20
2022-08-01T01:38:50.947Z,3.00
2022-08-01T01:39:54.372Z,3.20
2022-08-01T01:40:51.007Z,3.10
2022-08-01T01:41:50.912Z,3.30
2022-08-01T01:42:50.906Z,3.30
2022-08-01T01:43:50.895Z,3.10
2022-08-01T01:44:50.927Z,3.50
2022-08-01T01:45:50.892Z,3.20
2022-08-01T01:46:50.865Z,3.10
2022-08-01T01:47:50.938Z,3.40
2022-08-01T01:48:50.938Z,3.10
2022-08-01T01:49:50.859Z,3.70
2022-08-01T01:50:50.926Z,3.30
2022-08-01T01:51:57.395Z,3.90
2022-08-01T01:52:51.928Z,4.30
2022-08-01T01:53:50.892Z,3.20
2022-08-01T01:54:50.831Z,3.60
2022-08-01T01:55:50.806Z,3.60
2022-08-01T01:56:50.834Z,3.70
2022-08-01T01:57:50.850Z,3.60
2022-08-01T01:58:50.772Z,3.80
2022-08-01T01:59:50.793Z,3.80
2022-08-01T02:00:50.757Z,4.20
2022-08-01T02:02:06.088Z,3.70
2022-08-01T02:02:51.965Z,3.70
2022-08-01T02:03:50.760Z,3.90
2022-08-01T02:04:50.745Z,4.00
2022-08-01T02:05:50.781Z,3.70
2022-08-01T02:06:50.847Z,3.90
2022-08-01T02:07:50.759Z,3.80
2022-08-01T02:08:50.750Z,3.80
2022-08-01T02:09:50.831Z,4.00
2022-08-01T02:10:50.796Z,4.00
2022-08-01T02:12:07.585Z,4.30
2022-08-01T02:12:51.737Z,4.20
2022-08-01T02:13:50.773Z,4.50
2022-08-01T02:14:50.703Z,3.90
2022-08-01T02:15:59.883Z,4.10
2022-08-01T02:16:51.675Z,4.50
2022-08-01T02:17:50.695Z,4.20
2022-08-01T02:18:50.669Z,4.60
2022-08-01T02:19:50.743Z,4.70
2022-08-01T02:20:50.651Z,4.00
2022-08-01T02:21:50.647Z,4.40
2022-08-01T02:22:50.660Z,4.00
2022-08-01T02:23:50.641Z,4.60
2022-08-01T02:24:50.695Z,4.10
2022-08-01T02:26:09.539Z,4.40
2022-08-01T02:26:52.611Z,4.40
2022-08-01T02:27:50.589Z,4.00
2022-08-01T02:28:50.599Z,4.40
2022-08-01T02:29:50.575Z,4.50
2022-08-01T02:30:50.694Z,4.70
2022-08-01T02:31:50.604Z,5.40
2022-08-01T02:32:50.570Z,4.90
2022-08-01T02:33:50.570Z,5.80
2022-08-01T02:34:50.569Z,5.70
2022-08-01T02:36:31.570Z,5.50
2022-08-01T02:36:51.562Z,5.10
2022-08-01T02:37:50.548Z,4.70
2022-08-01T02:38:50.565Z,5.00
2022-08-01T02:39:50.538Z,5.40
2022-08-01T02:40:50.553Z,4.70
2022-08-01T02:41:50.561Z,5.00
2022-08-01T02:42:50.525Z,4.50
2022-08-01T02:43:53.066Z,4.50
2022-08-01T02:44:50.505Z,4.90
2022-08-01T02:45:50.579Z,4.50
2022-08-01T02:46:50.561Z,5.10
2022-08-01T02:47:50.523Z,5.80
2022-08-01T02:48:50.490Z,6.20
2022-08-01T02:49:53.306Z,5.40
2022-08-01T02:50:50.453Z,5.50
2022-08-01T02:51:50.475Z,6.00
2022-08-01T02:52:50.507Z,5.80
2022-08-01T02:53:50.457Z,6.10
2022-08-01T02:54:50.443Z,6.40
2022-08-01T02:55:50.424Z,6.40
2022-08-01T02:56:50.442Z,7.00
2022-08-01T02:57:52.272Z,7.20
2022-08-01T02:58:50.492Z,6.80
2022-08-01T02:59:50.434Z,6.80
2022-08-01T03:00:50.482Z,7.20
2022-08-01T03:01:50.485Z,7.00
2022-08-01T03:02:50.449Z,7.60
2022-08-01T03:03:50.377Z,7.30
2022-08-01T03:04:55.227Z,6.90
2022-08-01T03:05:52.409Z,7.00
2022-08-01T03:06:50.364Z,6.80
2022-08-01T03:07:50.384Z,7.20
2022-08-01T03:08:50.353Z,7.60
2022-08-01T03:09:50.383Z,7.60
2022-08-01T03:10:50.329Z,7.60
2022-08-01T03:11:50.322Z,7.40
2022-08-01T03:12:50.339Z,7.50
2022-08-01T03:13:50.870Z,6.80
2022-08-01T03:14:50.430Z,7.30
2022-08-01T03:15:50.315Z,7.40
2022-08-01T03:16:50.299Z,6.90
2022-08-01T03:17:50.299Z,7.30
2022-08-01T03:18:50.260Z,6.40
2022-08-01T03:19:50.286Z,6.60
2022-08-01T03:20:50.290Z,7.10
2022-08-01T03:21:50.299Z,6.50
2022-08-01T03:22:50.290Z,6.90
2022-08-01T03:23:54.737Z,6.90
2022-08-01T03:24:51.320Z,7.00
2022-08-01T03:25:50.402Z,6.70
2022-08-01T03:26:50.274Z,8.40
2022-08-01T03:27:50.252Z,8.10
2022-08-01T03:28:50.207Z,7.90
2022-08-01T03:29:50.208Z,7.10
2022-08-01T03:30:50.329Z,8.40
2022-08-01T03:31:50.242Z,8.30
2022-08-01T03:32:50.183Z,6.90
2022-08-01T03:33:50.185Z,6.80
2022-08-01T03:34:50.220Z,7.70
2022-08-01T03:35:50.250Z,8.00
2022-08-01T03:36:50.271Z,8.90
2022-08-01T03:38:14.688Z,8.40
2022-08-01T03:38:52.155Z,9.30
2022-08-01T03:39:50.178Z,8.80
2022-08-01T03:40:50.152Z,8.20
2022-08-01T03:41:53.614Z,8.40
2022-08-01T03:42:52.152Z,8.80
2022-08-01T03:43:51.178Z,7.80
2022-08-01T03:44:50.113Z,8.50
2022-08-01T03:45:50.133Z,8.40
2022-08-01T03:46:50.189Z,8.30
2022-08-01T03:47:50.191Z,8.60
2022-08-01T03:48:50.232Z,8.90
2022-08-01T03:49:50.265Z,7.80
2022-08-01T03:50:50.068Z,7.80
2022-08-01T03:51:50.091Z,7.50
2022-08-01T03:52:50.112Z,7.20
2022-08-01T03:53:50.087Z,6.70
2022-08-01T03:54:50.059Z,7.80
2022-08-01T03:55:50.051Z,7.30
2022-08-01T03:56:50.081Z,7.30
2022-08-01T03:57:50.094Z,6.90
2022-08-01T03:58:50.494Z,7.40
2022-08-01T03:59:50.035Z,7.60
2022-08-01T04:00:50.030Z,7.30
2022-08-01T04:01:50.082Z,7.40
2022-08-01T04:02:49.988Z,7.10
2022-08-01T04:03:50.065Z,6.60
2022-08-01T04:04:50.010Z,6.20
2022-08-01T04:05:49.998Z,5.50
2022-08-01T04:06:50.007Z,5.60
2022-08-01T04:07:49.981Z,5.30
2022-08-01T04:08:49.967Z,5.90
2022-08-01T04:09:50.017Z,5.30
2022-08-01T04:10:50.209Z,5.10
2022-08-01T04:11:49.932Z,5.80
2022-08-01T04:12:49.946Z,5.20
2022-08-01T04:13:49.971Z,5.60
2022-08-01T04:14:50.000Z,5.50
2022-08-01T04:15:49.969Z,6.00
2022-08-01T04:16:49.931Z,5.50
2022-08-01T04:17:49.903Z,5.20
2022-08-01T04:18:49.933Z,5.10
2022-08-01T04:19:49.885Z,5.50
2022-08-01T04:20:49.912Z,5.20
2022-08-01T04:21:49.893Z,5.50
2022-08-01T04:22:49.963Z,5.20
2022-08-01T04:23:51.588Z,5.10
2022-08-01T04:24:54.653Z,5.00
2022-08-01T04:25:51.868Z,4.70
2022-08-01T04:26:49.852Z,5.50
2022-08-01T04:27:51.970Z,5.30
2022-08-01T04:28:49.900Z,5.10
2022-08-01T04:29:49.871Z,4.30
2022-08-01T04:30:50.838Z,4.60
2022-08-01T04:31:49.912Z,5.00
2022-08-01T04:32:49.824Z,5.40
2022-08-01T04:33:49.819Z,5.60
2022-08-01T04:34:49.826Z,5.50
2022-08-01T04:36:03.476Z,5.00
2022-08-01T04:36:50.813Z,5.60
2022-08-01T04:37:49.800Z,5.10
2022-08-01T04:38:49.829Z,5.00
2022-08-01T04:39:50.505Z,5.40
2022-08-01T04:40:49.786Z,6.50
2022-08-01T04:41:49.790Z,6.70
2022-08-01T04:42:49.807Z,6.80
2022-08-01T04:43:49.877Z,7.50
2022-08-01T04:44:49.751Z,8.00
2022-08-01T04:45:49.744Z,7.10
2022-08-01T04:46:49.757Z,7.40
2022-08-01T04:47:49.751Z,7.80
2022-08-01T04:48:49.760Z,6.70
2022-08-01T04:49:49.751Z,6.80
2022-08-01T04:50:49.785Z,6.60
2022-08-01T04:51:49.708Z,5.70
2022-08-01T04:52:49.742Z,5.70
2022-08-01T04:53:49.681Z,5.60
2022-08-01T04:54:49.665Z,5.50
2022-08-01T04:55:49.689Z,6.10
2022-08-01T04:56:51.410Z,6.40
2022-08-01T04:57:49.709Z,6.20
2022-08-01T04:58:49.691Z,6.90
2022-08-01T04:59:49.652Z,7.10
2022-08-01T05:00:49.871Z,7.70
2022-08-01T05:01:49.738Z,7.40
2022-08-01T05:02:49.717Z,7.10
2022-08-01T05:03:49.702Z,7.00
2022-08-01T05:04:49.621Z,7.30
2022-08-01T05:05:49.610Z,6.60
2022-08-01T05:06:49.638Z,5.80
2022-08-01T05:07:49.652Z,5.80
2022-08-01T05:08:49.723Z,4.20
2022-08-01T05:09:49.592Z,4.40
2022-08-01T05:10:49.689Z,4.00
2022-08-01T05:11:49.592Z,4.20
2022-08-01T05:12:49.617Z,3.70
2022-08-01T05:13:49.569Z,3.40
2022-08-01T05:14:49.629Z,2.90
2022-08-01T05:15:49.538Z,3.20
2022-08-01T05:16:49.600Z,3.00
2022-08-01T05:17:49.584Z,3.20
2022-08-01T05:18:49.553Z,3.30
2022-08-01T05:19:49.563Z,3.00
2022-08-01T05:20:49.507Z,3.20
2022-08-01T05:21:49.589Z,3.30
2022-08-01T05:22:49.523Z,3.40
2022-08-01T05:23:49.480Z,3.40
2022-08-01T05:24:49.485Z,3.20
2022-08-01T05:25:57.809Z,3.30
2022-08-01T05:26:50.581Z,3.40
2022-08-01T05:27:51.029Z,3.60
2022-08-01T05:28:49.500Z,3.60
2022-08-01T05:29:49.528Z,3.40
2022-08-01T05:30:49.498Z,3.50
2022-08-01T05:31:49.518Z,3.50
2022-08-01T05:32:49.456Z,3.60
2022-08-01T05:33:49.445Z,3.30
2022-08-01T05:34:49.437Z,3.50
2022-08-01T05:35:49.527Z,3.60
2022-08-01T05:36:54.045Z,3.80
2022-08-01T05:37:51.444Z,3.40
2022-08-01T05:38:49.434Z,3.70
2022-08-01T05:39:49.434Z,3.90
2022-08-01T05:40:49.429Z,4.20
2022-08-01T05:41:49.453Z,3.70
2022-08-01T05:42:49.391Z,3.70
2022-08-01T05:43:49.512Z,3.70
2022-08-01T05:44:49.377Z,3.60
2022-08-01T05:45:49.404Z,4.10
2022-08-01T05:46:49.372Z,3.30
2022-08-01T05:47:49.447Z,3.80
2022-08-01T05:48:49.549Z,3.70
2022-08-01T05:49:49.318Z,3.80
2022-08-01T05:50:50.326Z,3.90
2022-08-01T05:51:50.466Z,4.10
2022-08-01T05:52:49.346Z,4.10
2022-08-01T05:53:49.349Z,3.90
2022-08-01T05:54:49.478Z,3.90
2022-08-01T05:55:49.322Z,4.10
2022-08-01T05:56:49.401Z,4.00
2022-08-01T05:57:49.322Z,3.60
2022-08-01T05:58:49.318Z,4.10
2022-08-01T05:59:49.290Z,4.20
2022-08-01T06:00:49.306Z,4.00
2022-08-01T06:01:49.317Z,4.00
2022-08-01T06:02:49.246Z,4.10
2022-08-01T06:03:49.359Z,3.90
2022-08-01T06:04:49.239Z,3.60
2022-08-01T06:05:49.281Z,4.10
2022-08-01T06:06:49.243Z,4.50
2022-08-01T06:07:49.218Z,4.10
2022-08-01T06:08:49.248Z,4.10
2022-08-01T06:09:49.210Z,3.90
2022-08-01T06:10:49.458Z,4.20
2022-08-01T06:11:49.206Z,4.10
2022-08-01T06:12:49.210Z,4.50
2022-08-01T06:13:49.189Z,3.90
2022-08-01T06:14:49.176Z,4.50
2022-08-01T06:15:49.210Z,4.10
2022-08-01T06:16:49.187Z,4.70
2022-08-01T06:17:49.184Z,4.40
2022-08-01T06:18:49.615Z,4.40
2022-08-01T06:19:49.139Z,4.70
2022-08-01T06:20:49.294Z,4.30
2022-08-01T06:21:49.116Z,4.40
2022-08-01T06:22:52.390Z,4.40
2022-08-01T06:23:49.120Z,4.40
2022-08-01T06:24:49.151Z,4.00
2022-08-01T06:25:49.168Z,4.50
2022-08-01T06:26:49.108Z,4.20
2022-08-01T06:27:49.120Z,4.20
2022-08-01T06:28:49.092Z,4.40
2022-08-01T06:29:51.413Z,4.30
2022-08-01T06:30:50.139Z,4.70
2022-08-01T06:31:49.173Z,4.20
2022-08-01T06:32:49.126Z,4.40
2022-08-01T06:33:49.064Z,4.10
2022-08-01T06:34:49.037Z,4.40
2022-08-01T06:35:49.046Z,4.50
2022-08-01T06:36:49.085Z,4.70
2022-08-01T06:37:49.048Z,5.00
2022-08-01T06:38:49.146Z,5.00
2022-08-01T06:39:49.113Z,4.70
2022-08-01T06:40:48.996Z,4.50
2022-08-01T06:41:49.076Z,4.80
2022-08-01T06:42:49.049Z,5.30
2022-08-01T06:43:49.003Z,4.60
2022-08-01T06:44:48.972Z,5.00
2022-08-01T06:45:49.059Z,5.20
2022-08-01T06:46:48.983Z,5.10
2022-08-01T06:47:50.802Z,4.40
2022-08-01T06:48:49.015Z,4.60
2022-08-01T06:49:48.992Z,4.70
2022-08-01T06:50:48.935Z,4.70
2022-08-01T06:51:48.937Z,5.20
2022-08-01T06:52:48.944Z,4.60
2022-08-01T06:53:48.938Z,5.00
2022-08-01T06:54:53.798Z,4.60
2022-08-01T06:55:48.917Z,5.10
2022-08-01T06:56:48.894Z,4.40
2022-08-01T06:57:48.981Z,4.90
2022-08-01T06:58:48.888Z,4.20
2022-08-01T06:59:51.789Z,4.50
2022-08-01T07:00:52.549Z,4.80
2022-08-01T07:01:49.916Z,4.60
2022-08-01T07:02:48.883Z,4.50
2022-08-01T07:03:52.730Z,4.80
2022-08-01T07:04:49.864Z,4.60
2022-08-01T07:05:48.934Z,4.50
2022-08-01T07:06:48.817Z,4.80
2022-08-01T07:07:48.841Z,5.20
2022-08-01T07:08:48.849Z,4.50
2022-08-01T07:09:48.856Z,4.80
2022-08-01T07:10:48.821Z,4.80
2022-08-01T07:11:48.837Z,4.20
2022-08-01T07:12:48.789Z,4.90
2022-08-01T07:13:48.806Z,4.50
2022-08-01T07:14:48.817Z,4.70
2022-08-01T07:15:48.849Z,4.60
2022-08-01T07:16:48.844Z,5.10
2022-08-01T07:17:48.789Z,5.00
2022-08-01T07:18:48.796Z,4.60
2022-08-01T07:19:48.842Z,4.70
2022-08-01T07:20:50.384Z,4.80
2022-08-01T07:21:50.083Z,5.40
2022-08-01T07:22:48.771Z,5.60
2022-08-01T07:23:48.760Z,5.10
2022-08-01T07:24:48.722Z,5.20
2022-08-01T07:25:50.753Z,5.60
2022-08-01T07:26:53.571Z,5.30
2022-08-01T07:27:49.725Z,5.60
2022-08-01T07:28:48.703Z,5.60
2022-08-01T07:29:48.693Z,5.60
2022-08-01T07:30:48.789Z,5.90
2022-08-01T07:31:48.664Z,5.60
2022-08-01T07:32:48.682Z,5.90
2022-08-01T07:33:49.487Z,6.20
2022-08-01T07:34:48.682Z,6.30
2022-08-01T07:35:48.761Z,5.90
2022-08-01T07:36:48.704Z,6.10
2022-08-01T07:37:49.497Z,6.00
2022-08-01T07:38:48.662Z,6.40
2022-08-01T07:39:48.670Z,5.30
2022-08-01T07:40:49.627Z,5.10
2022-08-01T07:42:06.797Z,5.50
2022-08-01T07:42:49.623Z,5.10
2022-08-01T07:43:57.129Z,4.80
2022-08-01T07:44:50.603Z,5.00
2022-08-01T07:45:48.613Z,4.90
2022-08-01T07:46:48.690Z,5.60
2022-08-01T07:47:48.633Z,4.80
2022-08-01T07:48:48.658Z,4.80
2022-08-01T07:49:48.689Z,4.80
2022-08-01T07:50:48.538Z,4.80
2022-08-01T07:52:03.373Z,5.00
2022-08-01T07:52:49.534Z,4.80
2022-08-01T07:53:48.530Z,5.30
2022-08-01T07:54:52.149Z,4.80
2022-08-01T07:55:49.491Z,4.90
2022-08-01T07:56:48.484Z,5.10
2022-08-01T07:57:48.468Z,5.10
2022-08-01T07:58:48.541Z,4.40
2022-08-01T07:59:49.467Z,4.70
2022-08-01T08:00:48.457Z,4.70
2022-08-01T08:01:48.571Z,4.90
2022-08-01T08:02:48.465Z,5.00
2022-08-01T08:03:48.430Z,4.90
2022-08-01T08:04:49.197Z,4.60
2022-08-01T08:05:58.761Z,4.50
2022-08-01T08:06:49.468Z,4.60
2022-08-01T08:07:48.464Z,4.70
2022-08-01T08:08:48.391Z,4.40
2022-08-01T08:09:51.160Z,4.50
2022-08-01T08:10:48.385Z,4.70
2022-08-01T08:11:48.656Z,4.40
2022-08-01T08:12:48.555Z,4.40
2022-08-01T08:13:48.535Z,3.90
2022-08-01T08:14:48.500Z,4.10
2022-08-01T08:15:49.459Z,4.50
2022-08-01T08:16:50.333Z,4.50
2022-08-01T08:17:54.889Z,3.70
2022-08-01T08:18:49.541Z,4.30
2022-08-01T08:19:48.458Z,4.20
2022-08-01T08:20:50.160Z,4.30
2022-08-01T08:21:48.421Z,4.00
2022-08-01T08:22:48.310Z,4.10
2022-08-01T08:23:48.322Z,4.10
2022-08-01T08:24:48.289Z,4.00
2022-08-01T08:25:48.287Z,3.80
2022-08-01T08:26:48.319Z,4.20
2022-08-01T08:27:48.255Z,4.70
2022-08-01T08:28:48.291Z,4.90
2022-08-01T08:29:48.239Z,5.00
2022-08-01T08:30:48.258Z,5.10
2022-08-01T08:31:51.871Z,4.70
2022-08-01T08:32:48.254Z,4.30
2022-08-01T08:33:48.254Z,4.00
2022-08-01T08:34:48.263Z,4.30
2022-08-01T08:35:54.173Z,4.90
2022-08-01T08:36:49.713Z,4.10
2022-08-01T08:37:49.141Z,4.20
2022-08-01T08:38:48.181Z,4.40
2022-08-01T08:39:48.240Z,4.30
2022-08-01T08:40:48.214Z,4.40
2022-08-01T08:41:49.110Z,4.30
2022-08-01T08:42:48.180Z,4.80
2022-08-01T08:43:48.136Z,4.50
2022-08-01T08:44:48.254Z,4.70
2022-08-01T08:45:59.025Z,5.00
2022-08-01T08:46:49.166Z,4.90
2022-08-01T08:47:48.206Z,4.90
2022-08-01T08:48:48.202Z,4.80
2022-08-01T08:49:49.227Z,4.40
2022-08-01T08:50:48.134Z,4.60
2022-08-01T08:51:48.129Z,4.50
2022-08-01T08:52:48.104Z,4.30
2022-08-01T08:53:48.107Z,4.70
2022-08-01T08:54:48.110Z,4.50
2022-08-01T08:55:56.465Z,4.60
2022-08-01T08:56:49.098Z,4.50
2022-08-01T08:57:48.046Z,4.10
2022-08-01T08:58:48.069Z,4.20
2022-08-01T08:59:48.180Z,4.60
2022-08-01T09:00:48.819Z,4.50
2022-08-01T09:01:48.095Z,4.80
2022-08-01T09:02:48.078Z,3.70
2022-08-01T09:03:48.142Z,4.00
2022-08-01T09:04:48.029Z,3.70
2022-08-01T09:05:48.014Z,4.00
2022-08-01T09:06:48.009Z,4.10
2022-08-01T09:07:48.052Z,3.80
2022-08-01T09:08:47.996Z,4.10
2022-08-01T09:09:47.964Z,4.10
2022-08-01T09:10:47.949Z,4.40
2022-08-01T09:12:05.284Z,4.00
2022-08-01T09:12:48.998Z,4.50
2022-08-01T09:13:47.967Z,4.20
2022-08-01T09:14:47.927Z,4.20
2022-08-01T09:15:47.928Z,4.20
2022-08-01T09:16:49.050Z,4.80
2022-08-01T09:17:48.970Z,4.90
2022-08-01T09:18:52.837Z,4.70
2022-08-01T09:19:48.995Z,5.00
2022-08-01T09:20:47.891Z,4.90
2022-08-01T09:21:47.902Z,5.10
2022-08-01T09:22:48.471Z,5.00
2022-08-01T09:23:53.263Z,4.90
2022-08-01T09:24:48.900Z,4.50
2022-08-01T09:25:48.046Z,4.40
2022-08-01T09:26:47.872Z,4.20
2022-08-01T09:27:47.860Z,4.10
2022-08-01T09:28:48.396Z,4.10
2022-08-01T09:29:49.736Z,4.30
2022-08-01T09:30:48.841Z,4.20
2022-08-01T09:31:48.067Z,4.90
2022-08-01T09:32:47.829Z,4.20
2022-08-01T09:33:47.831Z,4.00
2022-08-01T09:34:47.926Z,4.00
2022-08-01T09:35:48.030Z,4.10
2022-08-01T09:36:47.879Z,4.10
2022-08-01T09:37:47.811Z,4.20
2022-08-01T09:38:47.895Z,4.00
2022-08-01T09:39:48.923Z,3.30
2022-08-01T09:40:47.835Z,4.10
2022-08-01T09:41:47.782Z,3.80
2022-08-01T09:42:47.748Z,4.10
2022-08-01T09:43:47.899Z,4.00
2022-08-01T09:44:54.686Z,3.70
2022-08-01T09:45:50.750Z,3.70
2022-08-01T09:46:47.750Z,3.90
2022-08-01T09:47:47.776Z,3.60
2022-08-01T09:48:49.242Z,3.50
2022-08-01T09:49:50.606Z,3.30
2022-08-01T09:50:47.719Z,3.20
2022-08-01T09:51:59.530Z,3.30
2022-08-01T09:52:48.695Z,3.70
2022-08-01T09:53:51.964Z,3.60
2022-08-01T09:54:48.741Z,4.00
2022-08-01T09:55:47.696Z,3.70
2022-08-01T09:56:47.717Z,3.40
2022-08-01T09:57:47.729Z,4.10
2022-08-01T09:58:47.663Z,3.90
2022-08-01T09:59:58.226Z,3.80
2022-08-01T10:00:49.757Z,3.60
2022-08-01T10:01:47.679Z,3.60
2022-08-01T10:02:47.670Z,3.50
2022-08-01T10:03:47.710Z,3.80
2022-08-01T10:04:47.621Z,3.50
2022-08-01T10:05:50.090Z,3.70
2022-08-01T10:06:47.596Z,3.40
2022-08-01T10:07:47.624Z,3.40
2022-08-01T10:08:47.606Z,3.80
2022-08-01T10:09:47.604Z,3.70
2022-08-01T10:10:47.577Z,3.30
2022-08-01T10:11:48.607Z,3.50
2022-08-01T10:12:47.726Z,3.30
2022-08-01T10:13:47.613Z,3.70
2022-08-01T10:14:50.311Z,3.80
2022-08-01T10:15:47.548Z,3.70
2022-08-01T10:17:05.353Z,3.80
2022-08-01T10:17:51.119Z,2.60
2022-08-01T10:18:47.604Z,3.20
2022-08-01T10:19:47.656Z,3.20
2022-08-01T10:20:47.577Z,3.30
2022-08-01T10:21:56.793Z,3.20
2022-08-01T10:22:48.526Z,3.40
2022-08-01T10:23:47.504Z,3.30
2022-08-01T10:24:47.673Z,3.70
2022-08-01T10:25:47.629Z,3.00
2022-08-01T10:26:47.513Z,3.00
2022-08-01T10:27:48.541Z,3.20
2022-08-01T10:28:47.480Z,3.00
2022-08-01T10:30:05.215Z,2.90
2022-08-01T10:30:49.641Z,3.20
2022-08-01T10:31:50.559Z,3.10
2022-08-01T10:32:50.506Z,3.20
2022-08-01T10:33:50.377Z,3.10
2022-08-01T10:34:48.450Z,3.10
2022-08-01T10:35:48.207Z,2.90
2022-08-01T10:36:47.449Z,2.90
2022-08-01T10:37:52.216Z,3.10
2022-08-01T10:38:48.455Z,3.20
2022-08-01T10:39:47.454Z,3.10
2022-08-01T10:40:47.393Z,3.10
2022-08-01T10:41:47.414Z,3.50
2022-08-01T10:42:47.405Z,3.30
2022-08-01T10:43:47.410Z,3.30
2022-08-01T10:44:48.882Z,3.40
2022-08-01T10:45:47.368Z,3.60
2022-08-01T10:46:47.358Z,3.40
2022-08-01T10:47:50.631Z,3.20
2022-08-01T10:48:47.372Z,3.40
2022-08-01T10:49:47.335Z,4.50
2022-08-01T10:50:48.543Z,3.20
2022-08-01T10:51:51.670Z,3.40
2022-08-01T10:52:48.317Z,3.40
2022-08-01T10:53:47.421Z,3.40
2022-08-01T10:54:52.690Z,3.10
2022-08-01T10:55:48.339Z,3.40
2022-08-01T10:56:49.347Z,3.70
2022-08-01T10:57:48.852Z,3.80
2022-08-01T10:58:48.780Z,3.80
2022-08-01T10:59:50.915Z,3.40
2022-08-01T11:00:48.280Z,3.70
2022-08-01T11:01:47.325Z,3.60
2022-08-01T11:02:47.236Z,3.50
2022-08-01T11:03:57.496Z,3.30
2022-08-01T11:04:49.277Z,3.20
2022-08-01T11:05:49.703Z,3.60
2022-08-01T11:06:47.243Z,3.70
2022-08-01T11:07:47.241Z,3.60
2022-08-01T11:08:47.201Z,3.50
2022-08-01T11:09:51.711Z,3.50
2022-08-01T11:10:48.274Z,3.50
2022-08-01T11:11:47.207Z,3.30
2022-08-01T11:12:47.246Z,3.70
2022-08-01T11:13:47.210Z,3.40
2022-08-01T11:14:55.502Z,3.30
2022-08-01T11:15:50.430Z,3.50
2022-08-01T11:16:47.161Z,3.60
2022-08-01T11:17:47.203Z,3.40
2022-08-01T11:18:47.212Z,3.50
2022-08-01T11:19:47.214Z,3.70
2022-08-01T11:20:47.126Z,3.40
2022-08-01T11:21:57.852Z,3.40
2022-08-01T11:22:48.126Z,3.80
2022-08-01T11:23:47.113Z,4.00
2022-08-01T11:24:49.831Z,3.80
2022-08-01T11:26:03.493Z,3.70
2022-08-01T11:26:48.088Z,4.00
2022-08-01T11:27:47.095Z,4.00
2022-08-01T11:29:05.003Z,4.20
2022-08-01T11:29:49.156Z,4.00
2022-08-01T11:30:47.124Z,4.50
2022-08-01T11:31:47.109Z,4.50
2022-08-01T11:33:06.550Z,4.60
2022-08-01T11:33:49.431Z,4.60
2022-08-01T11:34:47.115Z,4.40
2022-08-01T11:35:47.047Z,5.00
2022-08-01T11:37:03.084Z,4.60
2022-08-01T11:37:49.144Z,4.50
2022-08-01T11:38:47.088Z,5.00
2022-08-01T11:39:47.020Z,4.50
2022-08-01T11:40:47.010Z,4.60
2022-08-01T11:41:47.050Z,4.50
2022-08-01T11:42:47.053Z,4.30
2022-08-01T11:43:46.977Z,4.50
2022-08-01T11:44:47.061Z,4.20
2022-08-01T11:45:46.989Z,4.50
2022-08-01T11:46:47.099Z,5.00
2022-08-01T11:47:46.976Z,4.50
2022-08-01T11:48:47.048Z,4.60
2022-08-01T11:49:49.066Z,4.70
2022-08-01T11:50:46.973Z,4.50
2022-08-01T11:51:46.955Z,3.80
2022-08-01T11:52:46.939Z,4.20
2022-08-01T11:53:46.978Z,4.40
2022-08-01T11:54:46.996Z,4.40
2022-08-01T11:55:51.165Z,4.60
2022-08-01T11:56:48.008Z,4.50
2022-08-01T11:57:48.526Z,4.70
2022-08-01T11:58:46.904Z,5.10
2022-08-01T12:00:02.658Z,4.50
2022-08-01T12:00:47.950Z,4.70
2022-08-01T12:01:46.920Z,4.10
2022-08-01T12:02:47.086Z,4.10
2022-08-01T12:03:46.932Z,4.20
2022-08-01T12:04:46.928Z,4.30
2022-08-01T12:05:46.926Z,4.30
2022-08-01T12:06:46.847Z,4.10
2022-08-01T12:07:46.886Z,4.30
2022-08-01T12:08:46.826Z,4.70
2022-08-01T12:09:46.831Z,4.60
2022-08-01T12:10:49.687Z,4.50
2022-08-01T12:11:46.861Z,4.70
2022-08-01T12:12:46.825Z,4.80
2022-08-01T12:13:46.826Z,4.80
2022-08-01T12:14:46.860Z,4.80
2022-08-01T12:15:47.195Z,4.50
2022-08-01T12:16:46.821Z,4.90
2022-08-01T12:17:57.634Z,5.40
2022-08-01T12:18:47.770Z,4.60
2022-08-01T12:19:46.826Z,4.70
2022-08-01T12:20:56.572Z,4.90
2022-08-01T12:21:51.174Z,4.80
2022-08-01T12:22:46.816Z,4.80
2022-08-01T12:23:46.729Z,5.00
2022-08-01T12:24:46.840Z,5.00
2022-08-01T12:25:46.779Z,5.10
2022-08-01T12:26:46.874Z,5.00
2022-08-01T12:27:46.785Z,5.00
2022-08-01T12:28:46.812Z,5.00
2022-08-01T12:29:46.700Z,4.70
2022-08-01T12:30:46.714Z,5.00
2022-08-01T12:31:46.716Z,4.50
2022-08-01T12:32:46.709Z,5.20
2022-08-01T12:33:46.736Z,5.40
2022-08-01T12:34:46.680Z,5.10
2022-08-01T12:35:46.729Z,4.80
2022-08-01T12:36:46.683Z,4.90
2022-08-01T12:37:46.685Z,4.80
2022-08-01T12:38:46.660Z,5.50
2022-08-01T12:39:46.661Z,5.20
2022-08-01T12:40:46.772Z,5.10
2022-08-01T12:41:46.635Z,4.90
2022-08-01T12:42:46.637Z,5.00
2022-08-01T12:43:46.697Z,5.30
2022-08-01T12:44:46.643Z,5.50
2022-08-01T12:45:56.784Z,5.00
2022-08-01T12:46:47.696Z,4.70
2022-08-01T12:47:46.644Z,4.50
2022-08-01T12:48:46.615Z,5.10
2022-08-01T12:49:46.623Z,4.90
2022-08-01T12:50:46.792Z,4.90
2022-08-01T12:51:46.601Z,5.00
2022-08-01T12:52:47.635Z,4.70
2022-08-01T12:53:46.583Z,5.10
2022-08-01T12:54:46.567Z,5.00
2022-08-01T12:55:59.670Z,4.50
2022-08-01T12:56:47.621Z,4.10
2022-08-01T12:57:46.561Z,3.90
2022-08-01T12:58:46.590Z,4.00
2022-08-01T12:59:46.529Z,3.70
2022-08-01T13:00:46.590Z,3.60
2022-08-01T13:01:46.638Z,3.70
2022-08-01T13:02:46.550Z,3.80
2022-08-01T13:03:46.525Z,3.50
2022-08-01T13:04:46.998Z,4.00
2022-08-01T13:05:47.497Z,4.20
2022-08-01T13:06:46.573Z,4.70
2022-08-01T13:07:46.642Z,4.40
2022-08-01T13:08:46.558Z,4.00
2022-08-01T13:09:46.466Z,4.20
2022-08-01T13:10:46.514Z,4.60
2022-08-01T13:11:59.073Z,4.20
2022-08-01T13:12:47.441Z,4.00
2022-08-01T13:13:46.460Z,4.00
2022-08-01T13:14:46.450Z,4.40
2022-08-01T13:15:46.465Z,4.20
2022-08-01T13:16:56.811Z,4.30
2022-08-01T13:17:48.479Z,4.60
2022-08-01T13:18:46.545Z,4.20